sensor_id;sensor_type;location;lat;lon;timestamp;temperature;humidity
13796;SHT30;40911;51.552;9.874;2023-06-14T00:03:58;17.19;60.35
13796;SHT30;40911;51.552;9.874;2023-06-14T00:06:21;17.19;59.75
13796;SHT30;40911;51.552;9.874;2023-06-14T00:08:44;17.01;60.49
13796;SHT30;40911;51.552;9.874;2023-06-14T00:11:06;16.78;60.92
13796;SHT30;40911;51.552;9.874;2023-06-14T00:13:28;16.64;60.93
13796;SHT30;40911;51.552;9.874;2023-06-14T00:15:49;16.52;61.54
13796;SHT30;40911;51.552;9.874;2023-06-14T00:18:14;16.33;61.76
13796;SHT30;40911;51.552;9.874;2023-06-14T00:20:38;16.74;61.10
13796;SHT30;40911;51.552;9.874;2023-06-14T00:22:59;16.38;61.81
13796;SHT30;40911;51.552;9.874;2023-06-14T00:25:22;16.12;62.23
13796;SHT30;40911;51.552;9.874;2023-06-14T00:27:43;16.26;62.11
13796;SHT30;40911;51.552;9.874;2023-06-14T00:30:05;16.17;62.15
13796;SHT30;40911;51.552;9.874;2023-06-14T00:32:27;16.24;62.53
13796;SHT30;40911;51.552;9.874;2023-06-14T00:34:48;16.22;62.51
13796;SHT30;40911;51.552;9.874;2023-06-14T00:37:11;16.09;62.75
13796;SHT30;40911;51.552;9.874;2023-06-14T00:39:33;15.98;62.91
13796;SHT30;40911;51.552;9.874;2023-06-14T00:41:55;15.87;63.56
13796;SHT30;40911;51.552;9.874;2023-06-14T00:44:18;15.59;64.23
13796;SHT30;40911;51.552;9.874;2023-06-14T00:46:39;15.50;64.53
13796;SHT30;40911;51.552;9.874;2023-06-14T00:49:01;15.85;63.11
13796;SHT30;40911;51.552;9.874;2023-06-14T00:51:23;15.47;64.40
13796;SHT30;40911;51.552;9.874;2023-06-14T00:53:46;15.63;64.25
13796;SHT30;40911;51.552;9.874;2023-06-14T00:56:08;15.56;64.41
13796;SHT30;40911;51.552;9.874;2023-06-14T00:58:29;15.57;64.38
13796;SHT30;40911;51.552;9.874;2023-06-14T01:00:52;15.59;64.58
13796;SHT30;40911;51.552;9.874;2023-06-14T01:03:14;15.12;66.03
13796;SHT30;40911;51.552;9.874;2023-06-14T01:05:42;15.44;65.31
13796;SHT30;40911;51.552;9.874;2023-06-14T01:08:21;15.12;66.19
13796;SHT30;40911;51.552;9.874;2023-06-14T01:10:53;15.74;64.00
13796;SHT30;40911;51.552;9.874;2023-06-14T01:13:20;15.84;63.49
13796;SHT30;40911;51.552;9.874;2023-06-14T01:15:43;15.97;63.63
13796;SHT30;40911;51.552;9.874;2023-06-14T01:18:05;16.11;63.31
13796;SHT30;40911;51.552;9.874;2023-06-14T01:20:27;16.07;62.98
13796;SHT30;40911;51.552;9.874;2023-06-14T01:22:54;15.91;63.51
13796;SHT30;40911;51.552;9.874;2023-06-14T01:25:15;15.71;64.39
13796;SHT30;40911;51.552;9.874;2023-06-14T01:27:41;15.75;64.03
13796;SHT30;40911;51.552;9.874;2023-06-14T01:30:02;15.57;64.85
13796;SHT30;40911;51.552;9.874;2023-06-14T01:32:26;15.59;64.77
13796;SHT30;40911;51.552;9.874;2023-06-14T01:34:49;15.43;65.48
13796;SHT30;40911;51.552;9.874;2023-06-14T01:37:11;15.49;65.34
13796;SHT30;40911;51.552;9.874;2023-06-14T01:39:35;15.25;66.02
13796;SHT30;40911;51.552;9.874;2023-06-14T01:41:57;15.36;65.43
13796;SHT30;40911;51.552;9.874;2023-06-14T01:44:20;15.20;66.14
13796;SHT30;40911;51.552;9.874;2023-06-14T01:46:43;14.94;66.60
13796;SHT30;40911;51.552;9.874;2023-06-14T01:49:06;14.81;67.32
13796;SHT30;40911;51.552;9.874;2023-06-14T01:51:28;14.81;67.49
13796;SHT30;40911;51.552;9.874;2023-06-14T01:53:50;14.96;66.71
13796;SHT30;40911;51.552;9.874;2023-06-14T01:56:13;15.01;66.75
13796;SHT30;40911;51.552;9.874;2023-06-14T01:58:34;14.83;67.43
13796;SHT30;40911;51.552;9.874;2023-06-14T02:00:57;14.91;67.02
13796;SHT30;40911;51.552;9.874;2023-06-14T02:03:21;14.74;67.21
13796;SHT30;40911;51.552;9.874;2023-06-14T02:05:43;14.98;66.84
13796;SHT30;40911;51.552;9.874;2023-06-14T02:08:05;14.98;66.76
13796;SHT30;40911;51.552;9.874;2023-06-14T02:10:27;14.78;67.17
13796;SHT30;40911;51.552;9.874;2023-06-14T02:12:50;14.91;66.85
13796;SHT30;40911;51.552;9.874;2023-06-14T02:15:11;14.87;67.09
13796;SHT30;40911;51.552;9.874;2023-06-14T02:17:37;14.49;68.17
13796;SHT30;40911;51.552;9.874;2023-06-14T02:19:58;14.57;67.81
13796;SHT30;40911;51.552;9.874;2023-06-14T02:22:20;14.63;67.96
13796;SHT30;40911;51.552;9.874;2023-06-14T02:24:42;14.54;68.35
13796;SHT30;40911;51.552;9.874;2023-06-14T02:27:04;14.43;68.35
13796;SHT30;40911;51.552;9.874;2023-06-14T02:29:28;14.40;68.69
13796;SHT30;40911;51.552;9.874;2023-06-14T02:31:49;14.39;68.79
13796;SHT30;40911;51.552;9.874;2023-06-14T02:34:11;14.33;68.73
13796;SHT30;40911;51.552;9.874;2023-06-14T02:36:33;14.16;69.62
13796;SHT30;40911;51.552;9.874;2023-06-14T02:38:54;14.06;70.07
13796;SHT30;40911;51.552;9.874;2023-06-14T02:41:17;13.85;70.88
13796;SHT30;40911;51.552;9.874;2023-06-14T02:43:39;13.84;71.20
13796;SHT30;40911;51.552;9.874;2023-06-14T02:46:02;14.02;70.18
13796;SHT30;40911;51.552;9.874;2023-06-14T02:48:24;14.04;70.17
13796;SHT30;40911;51.552;9.874;2023-06-14T02:50:45;14.25;69.44
13796;SHT30;40911;51.552;9.874;2023-06-14T02:53:07;14.18;69.48
13796;SHT30;40911;51.552;9.874;2023-06-14T02:55:29;13.84;71.08
13796;SHT30;40911;51.552;9.874;2023-06-14T02:57:50;13.87;70.65
13796;SHT30;40911;51.552;9.874;2023-06-14T03:00:14;13.74;71.10
13796;SHT30;40911;51.552;9.874;2023-06-14T03:02:37;13.70;71.34
13796;SHT30;40911;51.552;9.874;2023-06-14T03:04:58;13.36;72.51
13796;SHT30;40911;51.552;9.874;2023-06-14T03:07:21;13.16;73.52
13796;SHT30;40911;51.552;9.874;2023-06-14T03:09:43;13.94;70.64
13796;SHT30;40911;51.552;9.874;2023-06-14T03:12:06;13.40;72.46
13796;SHT30;40911;51.552;9.874;2023-06-14T03:14:30;13.58;71.71
13796;SHT30;40911;51.552;9.874;2023-06-14T03:16:52;13.48;72.17
13796;SHT30;40911;51.552;9.874;2023-06-14T03:19:18;13.77;71.06
13796;SHT30;40911;51.552;9.874;2023-06-14T03:21:40;13.62;71.71
13796;SHT30;40911;51.552;9.874;2023-06-14T03:24:05;13.54;72.06
13796;SHT30;40911;51.552;9.874;2023-06-14T03:26:27;13.47;72.36
13796;SHT30;40911;51.552;9.874;2023-06-14T03:28:51;13.36;72.72
13796;SHT30;40911;51.552;9.874;2023-06-14T03:31:13;13.43;72.66
13796;SHT30;40911;51.552;9.874;2023-06-14T03:33:35;13.39;72.70
13796;SHT30;40911;51.552;9.874;2023-06-14T03:35:58;13.27;73.49
13796;SHT30;40911;51.552;9.874;2023-06-14T03:38:19;13.34;72.99
13796;SHT30;40911;51.552;9.874;2023-06-14T03:40:41;13.30;72.99
13796;SHT30;40911;51.552;9.874;2023-06-14T03:43:03;13.43;72.77
13796;SHT30;40911;51.552;9.874;2023-06-14T03:45:24;13.29;73.38
13796;SHT30;40911;51.552;9.874;2023-06-14T03:47:46;13.53;72.52
13796;SHT30;40911;51.552;9.874;2023-06-14T03:50:08;13.46;73.04
13796;SHT30;40911;51.552;9.874;2023-06-14T03:52:31;13.57;72.44
13796;SHT30;40911;51.552;9.874;2023-06-14T03:54:54;13.57;72.74
13796;SHT30;40911;51.552;9.874;2023-06-14T03:57:15;13.41;73.60
13796;SHT30;40911;51.552;9.874;2023-06-14T03:59:37;13.51;73.55
13796;SHT30;40911;51.552;9.874;2023-06-14T04:01:58;13.60;72.92
13796;SHT30;40911;51.552;9.874;2023-06-14T04:04:20;13.51;73.36
13796;SHT30;40911;51.552;9.874;2023-06-14T04:06:48;13.60;73.17
13796;SHT30;40911;51.552;9.874;2023-06-14T04:09:12;13.46;73.98
13796;SHT30;40911;51.552;9.874;2023-06-14T04:11:33;13.57;73.34
13796;SHT30;40911;51.552;9.874;2023-06-14T04:13:55;13.54;73.73
13796;SHT30;40911;51.552;9.874;2023-06-14T04:16:17;13.58;73.67
13796;SHT30;40911;51.552;9.874;2023-06-14T04:18:39;13.62;73.35
13796;SHT30;40911;51.552;9.874;2023-06-14T04:21:00;13.54;73.73
13796;SHT30;40911;51.552;9.874;2023-06-14T04:23:22;13.62;73.61
13796;SHT30;40911;51.552;9.874;2023-06-14T04:25:45;13.70;73.51
13796;SHT30;40911;51.552;9.874;2023-06-14T04:28:07;13.80;73.30
13796;SHT30;40911;51.552;9.874;2023-06-14T04:30:29;13.89;73.19
13796;SHT30;40911;51.552;9.874;2023-06-14T04:32:52;14.12;73.09
13796;SHT30;40911;51.552;9.874;2023-06-14T04:35:15;14.29;72.39
13796;SHT30;40911;51.552;9.874;2023-06-14T04:37:37;14.40;72.17
13796;SHT30;40911;51.552;9.874;2023-06-14T04:40:04;14.37;72.34
13796;SHT30;40911;51.552;9.874;2023-06-14T04:42:28;14.43;72.34
13796;SHT30;40911;51.552;9.874;2023-06-14T04:44:51;14.40;72.28
13796;SHT30;40911;51.552;9.874;2023-06-14T04:47:16;14.60;72.28
13796;SHT30;40911;51.552;9.874;2023-06-14T04:49:38;14.64;72.57
13796;SHT30;40911;51.552;9.874;2023-06-14T04:52:00;14.74;72.07
13796;SHT30;40911;51.552;9.874;2023-06-14T04:54:23;14.87;71.90
13796;SHT30;40911;51.552;9.874;2023-06-14T04:56:45;14.92;71.66
13796;SHT30;40911;51.552;9.874;2023-06-14T04:59:08;14.99;71.88
13796;SHT30;40911;51.552;9.874;2023-06-14T05:01:31;14.96;72.47
13796;SHT30;40911;51.552;9.874;2023-06-14T05:03:53;15.08;72.14
13796;SHT30;40911;51.552;9.874;2023-06-14T05:06:15;15.28;71.57
13796;SHT30;40911;51.552;9.874;2023-06-14T05:08:37;15.46;71.11
13796;SHT30;40911;51.552;9.874;2023-06-14T05:10:59;15.63;70.94
13796;SHT30;40911;51.552;9.874;2023-06-14T05:13:20;15.52;71.27
13796;SHT30;40911;51.552;9.874;2023-06-14T05:15:44;15.71;70.67
13796;SHT30;40911;51.552;9.874;2023-06-14T05:18:06;15.85;70.73
13796;SHT30;40911;51.552;9.874;2023-06-14T05:20:28;15.90;70.07
13796;SHT30;40911;51.552;9.874;2023-06-14T05:22:50;16.14;69.22
13796;SHT30;40911;51.552;9.874;2023-06-14T05:25:13;16.26;69.42
13796;SHT30;40911;51.552;9.874;2023-06-14T05:27:34;16.28;69.19
13796;SHT30;40911;51.552;9.874;2023-06-14T05:29:57;16.60;68.42
13796;SHT30;40911;51.552;9.874;2023-06-14T05:32:20;16.56;69.03
13796;SHT30;40911;51.552;9.874;2023-06-14T05:34:42;16.61;68.15
13796;SHT30;40911;51.552;9.874;2023-06-14T05:37:05;16.97;67.83
13796;SHT30;40911;51.552;9.874;2023-06-14T05:39:26;16.80;68.10
13796;SHT30;40911;51.552;9.874;2023-06-14T05:41:48;17.22;67.88
13796;SHT30;40911;51.552;9.874;2023-06-14T05:44:10;17.01;67.82
13796;SHT30;40911;51.552;9.874;2023-06-14T05:46:32;17.32;67.51
13796;SHT30;40911;51.552;9.874;2023-06-14T05:48:55;17.42;67.26
13796;SHT30;40911;51.552;9.874;2023-06-14T05:51:17;17.36;67.25
13796;SHT30;40911;51.552;9.874;2023-06-14T05:53:39;16.49;67.07
13796;SHT30;40911;51.552;9.874;2023-06-14T05:56:01;16.18;67.52
13796;SHT30;40911;51.552;9.874;2023-06-14T05:58:23;17.10;66.30
13796;SHT30;40911;51.552;9.874;2023-06-14T06:00:45;17.03;66.87
13796;SHT30;40911;51.552;9.874;2023-06-14T06:03:06;17.69;65.28
13796;SHT30;40911;51.552;9.874;2023-06-14T06:05:30;17.22;65.42
13796;SHT30;40911;51.552;9.874;2023-06-14T06:07:52;17.28;65.22
13796;SHT30;40911;51.552;9.874;2023-06-14T06:10:14;17.46;65.92
13796;SHT30;40911;51.552;9.874;2023-06-14T06:12:36;17.28;65.68
13796;SHT30;40911;51.552;9.874;2023-06-14T06:14:57;17.43;65.66
13796;SHT30;40911;51.552;9.874;2023-06-14T06:17:19;17.90;65.34
13796;SHT30;40911;51.552;9.874;2023-06-14T06:19:41;17.50;65.63
13796;SHT30;40911;51.552;9.874;2023-06-14T06:22:04;17.38;66.13
13796;SHT30;40911;51.552;9.874;2023-06-14T06:24:26;17.91;64.89
13796;SHT30;40911;51.552;9.874;2023-06-14T06:26:48;17.93;64.64
13796;SHT30;40911;51.552;9.874;2023-06-14T06:29:09;17.11;65.72
13796;SHT30;40911;51.552;9.874;2023-06-14T06:31:31;17.74;65.55
13796;SHT30;40911;51.552;9.874;2023-06-14T06:33:53;17.77;64.93
13796;SHT30;40911;51.552;9.874;2023-06-14T06:36:15;18.04;63.70
13796;SHT30;40911;51.552;9.874;2023-06-14T06:38:38;17.84;65.10
13796;SHT30;40911;51.552;9.874;2023-06-14T06:41:01;17.86;65.15
13796;SHT30;40911;51.552;9.874;2023-06-14T06:43:22;18.25;64.45
13796;SHT30;40911;51.552;9.874;2023-06-14T06:45:44;18.22;64.05
13796;SHT30;40911;51.552;9.874;2023-06-14T06:48:06;17.87;64.55
13796;SHT30;40911;51.552;9.874;2023-06-14T06:50:27;17.83;64.68
13796;SHT30;40911;51.552;9.874;2023-06-14T06:52:49;18.08;64.01
13796;SHT30;40911;51.552;9.874;2023-06-14T06:55:12;18.15;64.07
13796;SHT30;40911;51.552;9.874;2023-06-14T06:57:34;18.30;64.08
13796;SHT30;40911;51.552;9.874;2023-06-14T06:59:57;18.28;64.12
13796;SHT30;40911;51.552;9.874;2023-06-14T07:02:19;18.56;63.82
13796;SHT30;40911;51.552;9.874;2023-06-14T07:04:40;19.12;62.30
13796;SHT30;40911;51.552;9.874;2023-06-14T07:07:03;19.38;62.24
13796;SHT30;40911;51.552;9.874;2023-06-14T07:09:24;19.04;62.93
13796;SHT30;40911;51.552;9.874;2023-06-14T07:11:47;19.07;62.83
13796;SHT30;40911;51.552;9.874;2023-06-14T07:14:09;19.31;62.38
13796;SHT30;40911;51.552;9.874;2023-06-14T07:16:31;19.14;61.68
13796;SHT30;40911;51.552;9.874;2023-06-14T07:18:52;19.14;62.95
13796;SHT30;40911;51.552;9.874;2023-06-14T07:21:14;19.62;61.29
13796;SHT30;40911;51.552;9.874;2023-06-14T07:23:36;19.23;62.02
13796;SHT30;40911;51.552;9.874;2023-06-14T07:25:57;19.25;62.11
13796;SHT30;40911;51.552;9.874;2023-06-14T07:28:21;19.99;61.29
13796;SHT30;40911;51.552;9.874;2023-06-14T07:30:42;19.49;61.43
13796;SHT30;40911;51.552;9.874;2023-06-14T07:33:04;19.52;61.16
13796;SHT30;40911;51.552;9.874;2023-06-14T07:35:26;20.22;60.89
13796;SHT30;40911;51.552;9.874;2023-06-14T07:37:47;19.48;60.97
13796;SHT30;40911;51.552;9.874;2023-06-14T07:40:10;19.73;60.50
13796;SHT30;40911;51.552;9.874;2023-06-14T07:42:33;20.10;60.43
13796;SHT30;40911;51.552;9.874;2023-06-14T07:44:57;18.80;61.25
13796;SHT30;40911;51.552;9.874;2023-06-14T07:47:18;20.06;60.34
13796;SHT30;40911;51.552;9.874;2023-06-14T07:49:40;19.87;60.20
13796;SHT30;40911;51.552;9.874;2023-06-14T07:52:02;19.67;61.13
13796;SHT30;40911;51.552;9.874;2023-06-14T07:54:25;19.69;59.96
13796;SHT30;40911;51.552;9.874;2023-06-14T07:56:48;19.89;61.02
13796;SHT30;40911;51.552;9.874;2023-06-14T07:59:10;19.08;61.21
13796;SHT30;40911;51.552;9.874;2023-06-14T08:01:34;19.59;61.25
13796;SHT30;40911;51.552;9.874;2023-06-14T08:03:57;20.09;59.58
13796;SHT30;40911;51.552;9.874;2023-06-14T08:06:19;19.66;60.44
13796;SHT30;40911;51.552;9.874;2023-06-14T08:08:40;20.47;59.26
13796;SHT30;40911;51.552;9.874;2023-06-14T08:11:02;20.09;58.67
13796;SHT30;40911;51.552;9.874;2023-06-14T08:13:24;20.16;59.31
13796;SHT30;40911;51.552;9.874;2023-06-14T08:15:45;20.28;58.70
13796;SHT30;40911;51.552;9.874;2023-06-14T08:18:09;19.87;59.26
13796;SHT30;40911;51.552;9.874;2023-06-14T08:20:30;20.95;58.05
13796;SHT30;40911;51.552;9.874;2023-06-14T08:22:55;20.89;58.01
13796;SHT30;40911;51.552;9.874;2023-06-14T08:25:17;20.55;58.38
13796;SHT30;40911;51.552;9.874;2023-06-14T08:27:39;21.02;57.54
13796;SHT30;40911;51.552;9.874;2023-06-14T08:30:01;19.87;59.47
13796;SHT30;40911;51.552;9.874;2023-06-14T08:32:23;20.75;58.52
13796;SHT30;40911;51.552;9.874;2023-06-14T08:34:46;20.45;58.74
13796;SHT30;40911;51.552;9.874;2023-06-14T08:37:07;20.77;56.58
13796;SHT30;40911;51.552;9.874;2023-06-14T08:39:29;21.23;57.93
13796;SHT30;40911;51.552;9.874;2023-06-14T08:41:52;21.47;55.61
13796;SHT30;40911;51.552;9.874;2023-06-14T08:44:14;20.77;56.66
13796;SHT30;40911;51.552;9.874;2023-06-14T08:46:37;21.15;56.49
13796;SHT30;40911;51.552;9.874;2023-06-14T08:48:59;21.76;56.07
13796;SHT30;40911;51.552;9.874;2023-06-14T08:51:25;22.23;55.62
13796;SHT30;40911;51.552;9.874;2023-06-14T08:53:51;22.54;53.89
13796;SHT30;40911;51.552;9.874;2023-06-14T08:56:13;21.28;54.58
13796;SHT30;40911;51.552;9.874;2023-06-14T08:58:35;21.82;53.81
13796;SHT30;40911;51.552;9.874;2023-06-14T09:00:58;22.33;52.69
13796;SHT30;40911;51.552;9.874;2023-06-14T09:03:21;22.64;53.51
13796;SHT30;40911;51.552;9.874;2023-06-14T09:05:43;21.57;54.06
13796;SHT30;40911;51.552;9.874;2023-06-14T09:08:07;21.93;53.42
13796;SHT30;40911;51.552;9.874;2023-06-14T09:10:31;22.51;52.92
13796;SHT30;40911;51.552;9.874;2023-06-14T09:12:53;22.21;53.70
13796;SHT30;40911;51.552;9.874;2023-06-14T09:15:16;21.55;54.70
13796;SHT30;40911;51.552;9.874;2023-06-14T09:17:38;21.40;55.39
13796;SHT30;40911;51.552;9.874;2023-06-14T09:20:00;22.09;53.51
13796;SHT30;40911;51.552;9.874;2023-06-14T09:22:23;22.10;53.73
13796;SHT30;40911;51.552;9.874;2023-06-14T09:24:47;22.10;54.25
13796;SHT30;40911;51.552;9.874;2023-06-14T09:27:15;21.76;53.56
13796;SHT30;40911;51.552;9.874;2023-06-14T09:29:38;20.68;55.28
13796;SHT30;40911;51.552;9.874;2023-06-14T09:32:00;21.92;53.88
13796;SHT30;40911;51.552;9.874;2023-06-14T09:34:22;22.16;53.51
13796;SHT30;40911;51.552;9.874;2023-06-14T09:36:44;22.54;52.37
13796;SHT30;40911;51.552;9.874;2023-06-14T09:39:06;22.84;52.27
13796;SHT30;40911;51.552;9.874;2023-06-14T09:41:33;23.40;51.04
13796;SHT30;40911;51.552;9.874;2023-06-14T09:43:55;23.49;51.36
13796;SHT30;40911;51.552;9.874;2023-06-14T09:46:18;22.54;51.69
13796;SHT30;40911;51.552;9.874;2023-06-14T09:48:40;22.60;51.40
13796;SHT30;40911;51.552;9.874;2023-06-14T09:51:03;22.91;50.63
13796;SHT30;40911;51.552;9.874;2023-06-14T09:53:26;22.98;51.11
13796;SHT30;40911;51.552;9.874;2023-06-14T09:55:49;23.54;50.14
13796;SHT30;40911;51.552;9.874;2023-06-14T09:58:14;23.02;50.63
13796;SHT30;40911;51.552;9.874;2023-06-14T10:00:39;22.60;51.11
13796;SHT30;40911;51.552;9.874;2023-06-14T10:03:05;23.64;50.97
13796;SHT30;40911;51.552;9.874;2023-06-14T10:05:28;23.77;49.55
13796;SHT30;40911;51.552;9.874;2023-06-14T10:07:53;23.54;50.17
13796;SHT30;40911;51.552;9.874;2023-06-14T10:10:17;23.02;49.59
13796;SHT30;40911;51.552;9.874;2023-06-14T10:12:39;23.49;49.06
13796;SHT30;40911;51.552;9.874;2023-06-14T10:15:03;23.23;49.47
13796;SHT30;40911;51.552;9.874;2023-06-14T10:17:33;23.60;49.68
13796;SHT30;40911;51.552;9.874;2023-06-14T10:19:57;22.76;50.70
13796;SHT30;40911;51.552;9.874;2023-06-14T10:22:30;23.06;50.45
13796;SHT30;40911;51.552;9.874;2023-06-14T10:24:53;22.79;49.63
13796;SHT30;40911;51.552;9.874;2023-06-14T10:27:15;23.26;49.88
13796;SHT30;40911;51.552;9.874;2023-06-14T10:30:07;23.13;49.50
13796;SHT30;40911;51.552;9.874;2023-06-14T10:32:29;22.00;51.44
13796;SHT30;40911;51.552;9.874;2023-06-14T10:34:54;22.79;49.71
13796;SHT30;40911;51.552;9.874;2023-06-14T10:37:17;22.58;51.15
13796;SHT30;40911;51.552;9.874;2023-06-14T10:39:40;22.99;49.70
13796;SHT30;40911;51.552;9.874;2023-06-14T10:42:02;22.10;50.72
13796;SHT30;40911;51.552;9.874;2023-06-14T10:44:43;22.41;50.74
13796;SHT30;40911;51.552;9.874;2023-06-14T10:47:09;22.60;50.68
13796;SHT30;40911;51.552;9.874;2023-06-14T10:49:42;22.33;50.04
13796;SHT30;40911;51.552;9.874;2023-06-14T10:52:04;23.11;49.60
13796;SHT30;40911;51.552;9.874;2023-06-14T10:54:27;22.81;49.64
13796;SHT30;40911;51.552;9.874;2023-06-14T10:56:50;23.51;49.06
13796;SHT30;40911;51.552;9.874;2023-06-14T10:59:11;23.46;47.55
13796;SHT30;40911;51.552;9.874;2023-06-14T11:01:36;23.39;48.12
13796;SHT30;40911;51.552;9.874;2023-06-14T11:04:07;24.23;47.45
13796;SHT30;40911;51.552;9.874;2023-06-14T11:06:36;23.78;47.32
13796;SHT30;40911;51.552;9.874;2023-06-14T11:09:38;23.98;48.62
13796;SHT30;40911;51.552;9.874;2023-06-14T11:12:03;24.13;47.65
13796;SHT30;40911;51.552;9.874;2023-06-14T11:14:25;23.30;48.14
13796;SHT30;40911;51.552;9.874;2023-06-14T11:16:50;23.07;49.08
13796;SHT30;40911;51.552;9.874;2023-06-14T11:19:13;22.95;49.00
13796;SHT30;40911;51.552;9.874;2023-06-14T11:21:40;23.03;49.03
13796;SHT30;40911;51.552;9.874;2023-06-14T11:24:02;24.18;47.92
13796;SHT30;40911;51.552;9.874;2023-06-14T11:26:27;23.54;48.40
13796;SHT30;40911;51.552;9.874;2023-06-14T11:28:55;23.85;48.45
13796;SHT30;40911;51.552;9.874;2023-06-14T11:31:20;23.54;49.31
13796;SHT30;40911;51.552;9.874;2023-06-14T11:33:41;23.39;48.78
13796;SHT30;40911;51.552;9.874;2023-06-14T11:36:06;23.18;47.23
13796;SHT30;40911;51.552;9.874;2023-06-14T11:38:28;23.06;48.23
13796;SHT30;40911;51.552;9.874;2023-06-14T11:40:50;23.33;49.03
13796;SHT30;40911;51.552;9.874;2023-06-14T11:43:12;23.73;47.41
13796;SHT30;40911;51.552;9.874;2023-06-14T11:45:34;24.29;47.04
13796;SHT30;40911;51.552;9.874;2023-06-14T11:47:56;24.83;46.65
13796;SHT30;40911;51.552;9.874;2023-06-14T11:50:18;24.63;47.20
13796;SHT30;40911;51.552;9.874;2023-06-14T11:52:41;24.90;47.00
13796;SHT30;40911;51.552;9.874;2023-06-14T11:55:04;25.28;47.35
13796;SHT30;40911;51.552;9.874;2023-06-14T11:57:26;24.73;46.56
13796;SHT30;40911;51.552;9.874;2023-06-14T11:59:48;25.33;46.09
13796;SHT30;40911;51.552;9.874;2023-06-14T12:02:13;25.71;45.73
13796;SHT30;40911;51.552;9.874;2023-06-14T12:04:35;24.75;47.05
13796;SHT30;40911;51.552;9.874;2023-06-14T12:06:57;25.71;45.73
13796;SHT30;40911;51.552;9.874;2023-06-14T12:09:20;25.04;45.84
13796;SHT30;40911;51.552;9.874;2023-06-14T12:11:44;25.32;46.43
13796;SHT30;40911;51.552;9.874;2023-06-14T12:14:06;24.90;46.32
13796;SHT30;40911;51.552;9.874;2023-06-14T12:16:31;25.63;45.61
13796;SHT30;40911;51.552;9.874;2023-06-14T12:18:53;25.74;45.29
13796;SHT30;40911;51.552;9.874;2023-06-14T12:21:15;26.07;45.62
13796;SHT30;40911;51.552;9.874;2023-06-14T12:23:42;26.22;45.10
13796;SHT30;40911;51.552;9.874;2023-06-14T12:26:06;25.23;45.78
13796;SHT30;40911;51.552;9.874;2023-06-14T12:28:31;25.02;46.44
13796;SHT30;40911;51.552;9.874;2023-06-14T12:30:53;24.49;46.46
13796;SHT30;40911;51.552;9.874;2023-06-14T12:33:15;24.36;47.44
13796;SHT30;40911;51.552;9.874;2023-06-14T12:35:37;25.43;46.89
13796;SHT30;40911;51.552;9.874;2023-06-14T12:37:59;25.22;46.05
13796;SHT30;40911;51.552;9.874;2023-06-14T12:40:20;24.74;46.09
13796;SHT30;40911;51.552;9.874;2023-06-14T12:42:44;24.73;46.51
13796;SHT30;40911;51.552;9.874;2023-06-14T12:45:08;24.75;46.37
13796;SHT30;40911;51.552;9.874;2023-06-14T12:47:30;26.08;47.26
13796;SHT30;40911;51.552;9.874;2023-06-14T12:49:52;25.32;46.92
13796;SHT30;40911;51.552;9.874;2023-06-14T12:52:14;24.84;46.95
13796;SHT30;40911;51.552;9.874;2023-06-14T12:54:35;24.05;48.10
13796;SHT30;40911;51.552;9.874;2023-06-14T12:56:59;24.25;48.08
13796;SHT30;40911;51.552;9.874;2023-06-14T12:59:22;24.18;48.47
13796;SHT30;40911;51.552;9.874;2023-06-14T13:01:44;23.98;48.03
13796;SHT30;40911;51.552;9.874;2023-06-14T13:04:07;23.88;48.51
13796;SHT30;40911;51.552;9.874;2023-06-14T13:06:29;25.01;47.41
13796;SHT30;40911;51.552;9.874;2023-06-14T13:08:51;25.39;47.92
13796;SHT30;40911;51.552;9.874;2023-06-14T13:11:15;24.52;48.26
13796;SHT30;40911;51.552;9.874;2023-06-14T13:13:36;24.22;49.68
13796;SHT30;40911;51.552;9.874;2023-06-14T13:15:59;23.71;50.23
13796;SHT30;40911;51.552;9.874;2023-06-14T13:18:21;23.94;49.58
13796;SHT30;40911;51.552;9.874;2023-06-14T13:20:43;23.85;49.82
13796;SHT30;40911;51.552;9.874;2023-06-14T13:23:05;23.73;49.95
13796;SHT30;40911;51.552;9.874;2023-06-14T13:25:27;23.57;50.35
13796;SHT30;40911;51.552;9.874;2023-06-14T13:27:49;23.50;50.34
13796;SHT30;40911;51.552;9.874;2023-06-14T13:30:12;24.01;50.03
13796;SHT30;40911;51.552;9.874;2023-06-14T13:32:35;23.58;50.09
13796;SHT30;40911;51.552;9.874;2023-06-14T13:34:56;23.53;49.57
13796;SHT30;40911;51.552;9.874;2023-06-14T13:37:18;23.36;50.38
13796;SHT30;40911;51.552;9.874;2023-06-14T13:39:40;23.71;50.53
13796;SHT30;40911;51.552;9.874;2023-06-14T13:42:02;22.98;51.07
13796;SHT30;40911;51.552;9.874;2023-06-14T13:44:23;23.02;51.51
13796;SHT30;40911;51.552;9.874;2023-06-14T13:46:45;23.32;50.57
13796;SHT30;40911;51.552;9.874;2023-06-14T13:49:08;22.79;51.02
13796;SHT30;40911;51.552;9.874;2023-06-14T13:51:31;24.20;50.47
13796;SHT30;40911;51.552;9.874;2023-06-14T13:53:55;24.70;49.49
13796;SHT30;40911;51.552;9.874;2023-06-14T13:56:17;25.14;48.38
13796;SHT30;40911;51.552;9.874;2023-06-14T13:58:39;24.52;49.39
13796;SHT30;40911;51.552;9.874;2023-06-14T14:01:00;24.12;49.34
13796;SHT30;40911;51.552;9.874;2023-06-14T14:03:22;24.19;50.09
13796;SHT30;40911;51.552;9.874;2023-06-14T14:05:46;23.71;50.84
13796;SHT30;40911;51.552;9.874;2023-06-14T14:08:07;24.57;49.86
13796;SHT30;40911;51.552;9.874;2023-06-14T14:10:29;23.99;49.94
13796;SHT30;40911;51.552;9.874;2023-06-14T14:12:51;24.02;50.81
13796;SHT30;40911;51.552;9.874;2023-06-14T14:15:13;24.23;51.14
13796;SHT30;40911;51.552;9.874;2023-06-14T14:17:35;23.94;51.08
13796;SHT30;40911;51.552;9.874;2023-06-14T14:19:57;24.09;50.92
13796;SHT30;40911;51.552;9.874;2023-06-14T14:22:20;24.08;50.77
13796;SHT30;40911;51.552;9.874;2023-06-14T14:24:42;23.80;50.79
13796;SHT30;40911;51.552;9.874;2023-06-14T14:27:04;24.09;50.63
13796;SHT30;40911;51.552;9.874;2023-06-14T14:29:27;23.75;50.72
13796;SHT30;40911;51.552;9.874;2023-06-14T14:31:49;23.92;50.71
13796;SHT30;40911;51.552;9.874;2023-06-14T14:34:11;24.01;50.74
13796;SHT30;40911;51.552;9.874;2023-06-14T14:36:33;23.07;50.68
13796;SHT30;40911;51.552;9.874;2023-06-14T14:38:59;23.46;51.04
13796;SHT30;40911;51.552;9.874;2023-06-14T14:41:21;23.64;50.81
13796;SHT30;40911;51.552;9.874;2023-06-14T14:43:43;23.92;50.73
13796;SHT30;40911;51.552;9.874;2023-06-14T14:46:04;24.08;50.82
13796;SHT30;40911;51.552;9.874;2023-06-14T14:48:26;24.19;50.10
13796;SHT30;40911;51.552;9.874;2023-06-14T14:50:48;24.16;50.32
13796;SHT30;40911;51.552;9.874;2023-06-14T14:53:10;24.60;50.21
13796;SHT30;40911;51.552;9.874;2023-06-14T14:55:33;24.30;50.49
13796;SHT30;40911;51.552;9.874;2023-06-14T14:57:56;24.29;50.40
13796;SHT30;40911;51.552;9.874;2023-06-14T15:00:18;24.08;51.02
13796;SHT30;40911;51.552;9.874;2023-06-14T15:02:40;24.52;51.00
13796;SHT30;40911;51.552;9.874;2023-06-14T15:05:02;23.37;51.97